sensor_id;sensor_type;location;lat;lon;timestamp;pressure;altitude;pressure_sealevel;temperature;humidity
42411;BME280;28056;51.112;0.984;2023-05-27T00:04:52;101970.68;;;10.30;67.88
42411;BME280;28056;51.112;0.984;2023-05-27T00:07:19;101970.29;;;10.41;69.31
42411;BME280;28056;51.112;0.984;2023-05-27T00:09:46;101969.13;;;10.44;69.41
42411;BME280;28056;51.112;0.984;2023-05-27T00:12:14;101970.49;;;10.36;69.28
42411;BME280;28056;51.112;0.984;2023-05-27T00:14:42;101968.63;;;10.23;69.84
42411;BME280;28056;51.112;0.984;2023-05-27T00:17:09;101967.90;;;10.61;69.10
42411;BME280;28056;51.112;0.984;2023-05-27T00:19:36;101968.41;;;9.94;71.85
42411;BME280;28056;51.112;0.984;2023-05-27T00:22:09;101964.29;;;9.84;72.28
42411;BME280;28056;51.112;0.984;2023-05-27T00:24:36;101958.23;;;10.69;69.81
42411;BME280;28056;51.112;0.984;2023-05-27T00:27:04;101954.64;;;11.09;68.71
42411;BME280;28056;51.112;0.984;2023-05-27T00:29:31;101953.48;;;10.65;68.59
42411;BME280;28056;51.112;0.984;2023-05-27T00:32:00;101950.35;;;10.51;69.80
42411;BME280;28056;51.112;0.984;2023-05-27T00:34:27;101952.14;;;11.32;67.64
42411;BME280;28056;51.112;0.984;2023-05-27T00:36:55;101949.38;;;10.69;69.02
42411;BME280;28056;51.112;0.984;2023-05-27T00:39:22;101945.33;;;10.20;70.70
42411;BME280;28056;51.112;0.984;2023-05-27T00:41:50;101944.65;;;9.97;70.77
42411;BME280;28056;51.112;0.984;2023-05-27T00:44:18;101948.00;;;10.13;72.00
42411;BME280;28056;51.112;0.984;2023-05-27T00:46:47;101941.62;;;10.35;70.72
42411;BME280;28056;51.112;0.984;2023-05-27T00:49:16;101942.99;;;10.25;71.51
42411;BME280;28056;51.112;0.984;2023-05-27T00:51:44;101941.40;;;10.27;71.30
42411;BME280;28056;51.112;0.984;2023-05-27T00:54:11;101940.21;;;10.17;70.59
42411;BME280;28056;51.112;0.984;2023-05-27T00:56:39;101940.26;;;9.67;73.44
42411;BME280;28056;51.112;0.984;2023-05-27T00:59:06;101934.25;;;9.98;72.06
42411;BME280;28056;51.112;0.984;2023-05-27T01:01:33;101935.51;;;9.60;73.69
42411;BME280;28056;51.112;0.984;2023-05-27T01:04:00;101929.62;;;10.24;72.15
42411;BME280;28056;51.112;0.984;2023-05-27T01:06:35;101933.57;;;10.71;69.96
42411;BME280;28056;51.112;0.984;2023-05-27T01:09:21;101933.50;;;9.97;72.09
42411;BME280;28056;51.112;0.984;2023-05-27T01:12:06;101932.06;;;10.68;70.70
42411;BME280;28056;51.112;0.984;2023-05-27T01:14:36;101929.37;;;10.55;71.19
42411;BME280;28056;51.112;0.984;2023-05-27T01:17:06;101929.34;;;10.99;70.22
42411;BME280;28056;51.112;0.984;2023-05-27T01:19:36;101923.86;;;11.15;68.58
42411;BME280;28056;51.112;0.984;2023-05-27T01:22:04;101923.65;;;10.58;69.92
42411;BME280;28056;51.112;0.984;2023-05-27T01:24:33;101922.65;;;10.52;71.20
42411;BME280;28056;51.112;0.984;2023-05-27T01:27:01;101917.22;;;10.66;70.19
42411;BME280;28056;51.112;0.984;2023-05-27T01:29:30;101918.50;;;10.69;70.45
42411;BME280;28056;51.112;0.984;2023-05-27T01:32:03;101916.84;;;10.82;69.67
42411;BME280;28056;51.112;0.984;2023-05-27T01:34:38;101919.56;;;10.92;68.70
42411;BME280;28056;51.112;0.984;2023-05-27T01:37:16;101916.46;;;10.91;69.03
42411;BME280;28056;51.112;0.984;2023-05-27T01:39:43;101912.10;;;10.81;69.59
42411;BME280;28056;51.112;0.984;2023-05-27T01:42:11;101914.52;;;10.53;70.31
42411;BME280;28056;51.112;0.984;2023-05-27T01:44:39;101910.39;;;11.01;68.38
42411;BME280;28056;51.112;0.984;2023-05-27T01:47:11;101909.24;;;11.07;67.50
42411;BME280;28056;51.112;0.984;2023-05-27T01:49:38;101905.86;;;11.10;68.83
42411;BME280;28056;51.112;0.984;2023-05-27T01:52:06;101903.76;;;10.71;69.23
42411;BME280;28056;51.112;0.984;2023-05-27T01:54:34;101902.49;;;10.66;69.49
42411;BME280;28056;51.112;0.984;2023-05-27T01:57:02;101904.89;;;11.47;67.02
42411;BME280;28056;51.112;0.984;2023-05-27T01:59:29;101901.26;;;11.03;68.48
42411;BME280;28056;51.112;0.984;2023-05-27T02:01:57;101899.26;;;10.96;68.78
42411;BME280;28056;51.112;0.984;2023-05-27T02:04:24;101897.67;;;11.23;67.95
42411;BME280;28056;51.112;0.984;2023-05-27T02:06:51;101898.33;;;11.34;67.20
42411;BME280;28056;51.112;0.984;2023-05-27T02:09:18;101898.94;;;11.85;65.34
42411;BME280;28056;51.112;0.984;2023-05-27T02:11:45;101896.15;;;11.63;66.74
42411;BME280;28056;51.112;0.984;2023-05-27T02:14:13;101901.66;;;11.88;64.47
42411;BME280;28056;51.112;0.984;2023-05-27T02:16:40;101897.58;;;11.40;66.08
42411;BME280;28056;51.112;0.984;2023-05-27T02:19:08;101898.32;;;11.74;65.16
42411;BME280;28056;51.112;0.984;2023-05-27T02:21:35;101893.79;;;11.01;67.45
42411;BME280;28056;51.112;0.984;2023-05-27T02:24:02;101897.54;;;11.89;64.84
42411;BME280;28056;51.112;0.984;2023-05-27T02:26:29;101894.20;;;11.43;66.43
42411;BME280;28056;51.112;0.984;2023-05-27T02:28:57;101895.02;;;12.14;63.65
42411;BME280;28056;51.112;0.984;2023-05-27T02:31:24;101890.81;;;12.37;62.67
42411;BME280;28056;51.112;0.984;2023-05-27T02:33:51;101890.14;;;11.86;63.82
42411;BME280;28056;51.112;0.984;2023-05-27T02:36:18;101888.38;;;11.98;63.28
42411;BME280;28056;51.112;0.984;2023-05-27T02:38:45;101890.05;;;12.01;63.02
42411;BME280;28056;51.112;0.984;2023-05-27T02:41:12;101886.35;;;11.84;62.91
42411;BME280;28056;51.112;0.984;2023-05-27T02:43:39;101885.52;;;11.31;64.91
42411;BME280;28056;51.112;0.984;2023-05-27T02:46:07;101882.02;;;11.25;65.04
42411;BME280;28056;51.112;0.984;2023-05-27T02:48:34;101877.59;;;11.49;64.91
42411;BME280;28056;51.112;0.984;2023-05-27T02:51:01;101875.95;;;11.53;64.06
42411;BME280;28056;51.112;0.984;2023-05-27T02:53:28;101881.35;;;11.80;62.19
42411;BME280;28056;51.112;0.984;2023-05-27T02:55:55;101880.20;;;12.21;61.27
42411;BME280;28056;51.112;0.984;2023-05-27T02:58:23;101879.40;;;11.92;62.93
42411;BME280;28056;51.112;0.984;2023-05-27T03:00:51;101881.84;;;11.70;63.29
42411;BME280;28056;51.112;0.984;2023-05-27T03:03:18;101879.68;;;11.25;64.16
42411;BME280;28056;51.112;0.984;2023-05-27T03:05:45;101879.31;;;11.68;63.04
42411;BME280;28056;51.112;0.984;2023-05-27T03:08:13;101879.97;;;11.60;62.93
42411;BME280;28056;51.112;0.984;2023-05-27T03:10:41;101880.37;;;11.93;62.20
42411;BME280;28056;51.112;0.984;2023-05-27T03:13:08;101875.75;;;12.19;60.83
42411;BME280;28056;51.112;0.984;2023-05-27T03:15:37;101874.20;;;11.79;61.13
42411;BME280;28056;51.112;0.984;2023-05-27T03:18:04;101875.32;;;11.85;61.62
42411;BME280;28056;51.112;0.984;2023-05-27T03:20:31;101873.58;;;12.11;60.11
42411;BME280;28056;51.112;0.984;2023-05-27T03:22:58;101875.43;;;12.03;60.44
42411;BME280;28056;51.112;0.984;2023-05-27T03:25:26;101873.66;;;12.11;61.14
42411;BME280;28056;51.112;0.984;2023-05-27T03:27:54;101873.81;;;11.41;61.97
42411;BME280;28056;51.112;0.984;2023-05-27T03:30:21;101871.49;;;11.33;62.94
42411;BME280;28056;51.112;0.984;2023-05-27T03:32:48;101872.81;;;11.82;61.47
42411;BME280;28056;51.112;0.984;2023-05-27T03:35:16;101874.68;;;11.99;60.33
42411;BME280;28056;51.112;0.984;2023-05-27T03:37:44;101875.08;;;12.15;59.55
42411;BME280;28056;51.112;0.984;2023-05-27T03:40:12;101874.66;;;11.65;60.22
42411;BME280;28056;51.112;0.984;2023-05-27T03:42:39;101872.99;;;11.75;61.01
42411;BME280;28056;51.112;0.984;2023-05-27T03:45:08;101870.25;;;12.19;59.35
42411;BME280;28056;51.112;0.984;2023-05-27T03:47:35;101868.15;;;11.42;61.85
42411;BME280;28056;51.112;0.984;2023-05-27T03:50:03;101863.25;;;11.80;60.91
42411;BME280;28056;51.112;0.984;2023-05-27T03:52:30;101858.29;;;11.80;60.48
42411;BME280;28056;51.112;0.984;2023-05-27T03:54:58;101860.85;;;12.42;59.16
42411;BME280;28056;51.112;0.984;2023-05-27T03:57:25;101860.32;;;11.86;60.90
42411;BME280;28056;51.112;0.984;2023-05-27T03:59:53;101857.63;;;12.34;59.17
42411;BME280;28056;51.112;0.984;2023-05-27T04:02:20;101855.99;;;12.13;59.67
42411;BME280;28056;51.112;0.984;2023-05-27T04:04:47;101856.55;;;12.22;59.34
42411;BME280;28056;51.112;0.984;2023-05-27T04:07:15;101855.19;;;12.32;59.32
42411;BME280;28056;51.112;0.984;2023-05-27T04:09:42;101849.97;;;12.12;59.90
42411;BME280;28056;51.112;0.984;2023-05-27T04:12:09;101852.15;;;12.20;59.61
42411;BME280;28056;51.112;0.984;2023-05-27T04:14:36;101852.37;;;11.84;61.11
42411;BME280;28056;51.112;0.984;2023-05-27T04:17:04;101852.16;;;11.60;61.87
42411;BME280;28056;51.112;0.984;2023-05-27T04:19:31;101847.70;;;12.17;60.07
42411;BME280;28056;51.112;0.984;2023-05-27T04:21:58;101848.69;;;12.18;60.16
42411;BME280;28056;51.112;0.984;2023-05-27T04:24:26;101847.90;;;12.34;60.19
42411;BME280;28056;51.112;0.984;2023-05-27T04:26:54;101851.02;;;12.59;59.17
42411;BME280;28056;51.112;0.984;2023-05-27T04:29:22;101852.50;;;12.70;58.90
42411;BME280;28056;51.112;0.984;2023-05-27T04:31:49;101856.36;;;12.56;58.55
42411;BME280;28056;51.112;0.984;2023-05-27T04:34:17;101853.89;;;12.40;59.94
42411;BME280;28056;51.112;0.984;2023-05-27T04:36:44;101851.53;;;12.26;60.30
42411;BME280;28056;51.112;0.984;2023-05-27T04:39:12;101850.06;;;12.48;60.22
42411;BME280;28056;51.112;0.984;2023-05-27T04:41:39;101847.40;;;12.30;60.86
42411;BME280;28056;51.112;0.984;2023-05-27T04:44:07;101848.35;;;12.16;61.51
42411;BME280;28056;51.112;0.984;2023-05-27T04:46:34;101847.91;;;11.25;63.96
42411;BME280;28056;51.112;0.984;2023-05-27T04:49:02;101855.49;;;11.67;63.62
42411;BME280;28056;51.112;0.984;2023-05-27T04:51:29;101857.72;;;11.64;64.15
42411;BME280;28056;51.112;0.984;2023-05-27T04:53:57;101856.64;;;12.19;62.91
42411;BME280;28056;51.112;0.984;2023-05-27T04:56:24;101856.89;;;12.17;62.99
42411;BME280;28056;51.112;0.984;2023-05-27T04:58:51;101855.06;;;12.27;61.68
42411;BME280;28056;51.112;0.984;2023-05-27T05:01:19;101855.17;;;12.79;60.47
42411;BME280;28056;51.112;0.984;2023-05-27T05:03:46;101853.70;;;12.63;60.63
42411;BME280;28056;51.112;0.984;2023-05-27T05:06:13;101851.07;;;12.65;61.05
42411;BME280;28056;51.112;0.984;2023-05-27T05:08:40;101849.42;;;12.73;60.77
42411;BME280;28056;51.112;0.984;2023-05-27T05:11:08;101841.55;;;12.06;62.58
42411;BME280;28056;51.112;0.984;2023-05-27T05:13:36;101843.30;;;12.65;61.72
42411;BME280;28056;51.112;0.984;2023-05-27T05:16:03;101837.51;;;11.83;64.66
42411;BME280;28056;51.112;0.984;2023-05-27T05:18:30;101837.07;;;12.83;62.31
42411;BME280;28056;51.112;0.984;2023-05-27T05:20:58;101841.93;;;12.14;64.20
42411;BME280;28056;51.112;0.984;2023-05-27T05:23:25;101837.24;;;12.25;64.03
42411;BME280;28056;51.112;0.984;2023-05-27T05:25:52;101840.19;;;12.01;64.59
42411;BME280;28056;51.112;0.984;2023-05-27T05:28:20;101838.92;;;12.38;64.22
42411;BME280;28056;51.112;0.984;2023-05-27T05:30:47;101839.46;;;12.32;65.40
42411;BME280;28056;51.112;0.984;2023-05-27T05:33:14;101835.09;;;11.93;65.11
42411;BME280;28056;51.112;0.984;2023-05-27T05:35:41;101837.47;;;12.35;63.77
42411;BME280;28056;51.112;0.984;2023-05-27T05:38:09;101830.91;;;12.23;65.31
42411;BME280;28056;51.112;0.984;2023-05-27T05:40:37;101831.78;;;11.83;67.12
42411;BME280;28056;51.112;0.984;2023-05-27T05:43:04;101831.62;;;11.40;66.96
42411;BME280;28056;51.112;0.984;2023-05-27T05:45:31;101833.95;;;12.46;65.01
42411;BME280;28056;51.112;0.984;2023-05-27T05:47:59;101839.26;;;12.61;65.44
42411;BME280;28056;51.112;0.984;2023-05-27T05:50:26;101837.27;;;11.73;67.18
42411;BME280;28056;51.112;0.984;2023-05-27T05:52:53;101843.36;;;12.64;65.30
42411;BME280;28056;51.112;0.984;2023-05-27T05:55:20;101837.98;;;12.17;67.29
42411;BME280;28056;51.112;0.984;2023-05-27T05:57:48;101838.07;;;12.57;65.72
42411;BME280;28056;51.112;0.984;2023-05-27T06:00:16;101838.58;;;11.00;68.77
42411;BME280;28056;51.112;0.984;2023-05-27T06:02:44;101834.69;;;12.24;65.80
42411;BME280;28056;51.112;0.984;2023-05-27T06:05:11;101833.83;;;12.49;65.59
42411;BME280;28056;51.112;0.984;2023-05-27T06:07:39;101829.25;;;11.90;66.69
42411;BME280;28056;51.112;0.984;2023-05-27T06:10:07;101831.14;;;11.95;68.48
42411;BME280;28056;51.112;0.984;2023-05-27T06:12:34;101837.59;;;12.15;66.67
42411;BME280;28056;51.112;0.984;2023-05-27T06:15:02;101841.31;;;12.70;65.95
42411;BME280;28056;51.112;0.984;2023-05-27T06:17:29;101841.92;;;12.67;64.96
42411;BME280;28056;51.112;0.984;2023-05-27T06:19:57;101838.71;;;12.38;67.10
42411;BME280;28056;51.112;0.984;2023-05-27T06:22:25;101837.07;;;12.09;66.54
42411;BME280;28056;51.112;0.984;2023-05-27T06:24:52;101838.73;;;11.94;68.00
42411;BME280;28056;51.112;0.984;2023-05-27T06:27:19;101831.69;;;11.95;66.54
42411;BME280;28056;51.112;0.984;2023-05-27T06:29:47;101833.48;;;12.33;65.94
42411;BME280;28056;51.112;0.984;2023-05-27T06:32:15;101832.89;;;12.23;67.35
42411;BME280;28056;51.112;0.984;2023-05-27T06:34:42;101828.43;;;12.50;66.25
42411;BME280;28056;51.112;0.984;2023-05-27T06:37:10;101832.00;;;12.61;65.80
42411;BME280;28056;51.112;0.984;2023-05-27T06:39:38;101832.12;;;13.09;65.07
42411;BME280;28056;51.112;0.984;2023-05-27T06:42:05;101833.96;;;12.89;65.39
42411;BME280;28056;51.112;0.984;2023-05-27T06:44:33;101830.06;;;13.19;64.71
42411;BME280;28056;51.112;0.984;2023-05-27T06:47:00;101834.61;;;13.07;63.79
42411;BME280;28056;51.112;0.984;2023-05-27T06:49:28;101831.32;;;12.38;64.94
42411;BME280;28056;51.112;0.984;2023-05-27T06:51:55;101829.11;;;12.80;62.71
42411;BME280;28056;51.112;0.984;2023-05-27T06:54:23;101827.74;;;12.77;64.03
42411;BME280;28056;51.112;0.984;2023-05-27T06:56:50;101825.43;;;13.47;61.86
42411;BME280;28056;51.112;0.984;2023-05-27T06:59:17;101824.32;;;12.82;62.88
42411;BME280;28056;51.112;0.984;2023-05-27T07:01:45;101825.13;;;13.06;63.26
42411;BME280;28056;51.112;0.984;2023-05-27T07:04:12;101821.73;;;12.21;63.92
42411;BME280;28056;51.112;0.984;2023-05-27T07:06:39;101821.35;;;12.45;62.47
42411;BME280;28056;51.112;0.984;2023-05-27T07:09:07;101824.21;;;13.12;61.49
42411;BME280;28056;51.112;0.984;2023-05-27T07:11:35;101818.88;;;12.98;63.55
42411;BME280;28056;51.112;0.984;2023-05-27T07:14:03;101817.73;;;12.91;62.55
42411;BME280;28056;51.112;0.984;2023-05-27T07:16:30;101816.30;;;13.32;60.16
42411;BME280;28056;51.112;0.984;2023-05-27T07:18:58;101814.66;;;12.70;62.38
42411;BME280;28056;51.112;0.984;2023-05-27T07:21:26;101817.88;;;12.52;61.93
42411;BME280;28056;51.112;0.984;2023-05-27T07:23:53;101812.33;;;12.46;61.35
42411;BME280;28056;51.112;0.984;2023-05-27T07:26:20;101813.32;;;13.37;61.42
42411;BME280;28056;51.112;0.984;2023-05-27T07:28:48;101811.52;;;12.56;62.42
42411;BME280;28056;51.112;0.984;2023-05-27T07:31:15;101808.97;;;13.76;59.84
42411;BME280;28056;51.112;0.984;2023-05-27T07:33:42;101807.97;;;13.14;61.95
42411;BME280;28056;51.112;0.984;2023-05-27T07:36:10;101807.82;;;13.88;61.41
42411;BME280;28056;51.112;0.984;2023-05-27T07:38:37;101798.67;;;14.00;59.48
42411;BME280;28056;51.112;0.984;2023-05-27T07:41:05;101799.34;;;14.69;58.00
42411;BME280;28056;51.112;0.984;2023-05-27T07:43:32;101798.76;;;14.65;57.17
42411;BME280;28056;51.112;0.984;2023-05-27T07:46:00;101801.13;;;15.29;59.17
42411;BME280;28056;51.112;0.984;2023-05-27T07:48:28;101798.01;;;15.24;58.30
42411;BME280;28056;51.112;0.984;2023-05-27T07:50:55;101800.41;;;15.03;56.31
42411;BME280;28056;51.112;0.984;2023-05-27T07:53:23;101791.57;;;14.90;57.72
42411;BME280;28056;51.112;0.984;2023-05-27T07:55:50;101793.15;;;15.21;56.78
42411;BME280;28056;51.112;0.984;2023-05-27T07:58:18;101792.06;;;15.79;56.04
42411;BME280;28056;51.112;0.984;2023-05-27T08:00:45;101792.46;;;16.11;55.60
42411;BME280;28056;51.112;0.984;2023-05-27T08:03:13;101785.93;;;15.69;55.46
42411;BME280;28056;51.112;0.984;2023-05-27T08:05:41;101783.94;;;15.99;55.14
42411;BME280;28056;51.112;0.984;2023-05-27T08:08:10;101779.97;;;15.44;52.88
42411;BME280;28056;51.112;0.984;2023-05-27T08:10:37;101779.95;;;15.33;53.93
42411;BME280;28056;51.112;0.984;2023-05-27T08:13:05;101776.00;;;15.62;54.21
42411;BME280;28056;51.112;0.984;2023-05-27T08:15:32;101772.61;;;16.26;52.72
42411;BME280;28056;51.112;0.984;2023-05-27T08:18:00;101777.94;;;15.87;54.55
42411;BME280;28056;51.112;0.984;2023-05-27T08:20:27;101769.84;;;15.84;54.24
42411;BME280;28056;51.112;0.984;2023-05-27T08:22:55;101772.78;;;16.22;55.85
42411;BME280;28056;51.112;0.984;2023-05-27T08:25:22;101770.58;;;16.33;53.16
42411;BME280;28056;51.112;0.984;2023-05-27T08:27:52;101767.49;;;16.03;52.70
42411;BME280;28056;51.112;0.984;2023-05-27T08:30:20;101767.98;;;16.94;52.25
42411;BME280;28056;51.112;0.984;2023-05-27T08:32:47;101760.75;;;17.03;51.74
42411;BME280;28056;51.112;0.984;2023-05-27T08:35:15;101759.92;;;17.64;51.21
42411;BME280;28056;51.112;0.984;2023-05-27T08:37:42;101757.11;;;16.48;51.74
42411;BME280;28056;51.112;0.984;2023-05-27T08:40:18;101755.28;;;16.37;49.58
42411;BME280;28056;51.112;0.984;2023-05-27T08:42:46;101758.69;;;17.50;52.66
42411;BME280;28056;51.112;0.984;2023-05-27T08:45:13;101754.95;;;17.69;49.98
42411;BME280;28056;51.112;0.984;2023-05-27T08:47:41;101752.77;;;17.96;49.70
42411;BME280;28056;51.112;0.984;2023-05-27T08:50:10;101745.24;;;18.76;48.88
42411;BME280;28056;51.112;0.984;2023-05-27T08:52:42;101746.22;;;17.66;46.65
42411;BME280;28056;51.112;0.984;2023-05-27T08:55:12;101744.81;;;18.06;49.33
42411;BME280;28056;51.112;0.984;2023-05-27T08:57:43;101748.83;;;16.94;49.02
42411;BME280;28056;51.112;0.984;2023-05-27T09:00:13;101746.98;;;17.17;47.13
42411;BME280;28056;51.112;0.984;2023-05-27T09:02:41;101747.75;;;17.36;48.94
42411;BME280;28056;51.112;0.984;2023-05-27T09:05:09;101738.08;;;17.10;48.79
42411;BME280;28056;51.112;0.984;2023-05-27T09:07:37;101732.69;;;18.71;50.31
42411;BME280;28056;51.112;0.984;2023-05-27T09:10:07;101730.50;;;18.28;49.52
42411;BME280;28056;51.112;0.984;2023-05-27T09:12:35;101730.32;;;19.02;48.50
42411;BME280;28056;51.112;0.984;2023-05-27T09:15:04;101728.38;;;19.30;45.85
42411;BME280;28056;51.112;0.984;2023-05-27T09:17:33;101727.63;;;18.65;45.29
42411;BME280;28056;51.112;0.984;2023-05-27T09:20:00;101723.22;;;19.06;45.85
42411;BME280;28056;51.112;0.984;2023-05-27T09:22:30;101724.29;;;18.63;45.02
42411;BME280;28056;51.112;0.984;2023-05-27T09:24:58;101725.13;;;18.80;44.94
42411;BME280;28056;51.112;0.984;2023-05-27T09:27:27;101722.14;;;19.07;42.61
42411;BME280;28056;51.112;0.984;2023-05-27T09:29:54;101717.46;;;19.38;45.96
42411;BME280;28056;51.112;0.984;2023-05-27T09:32:24;101718.42;;;19.20;45.08
42411;BME280;28056;51.112;0.984;2023-05-27T09:34:52;101714.40;;;19.61;44.59
42411;BME280;28056;51.112;0.984;2023-05-27T09:37:23;101709.96;;;20.05;43.52
42411;BME280;28056;51.112;0.984;2023-05-27T09:39:52;101703.95;;;19.36;42.80
42411;BME280;28056;51.112;0.984;2023-05-27T09:42:19;101699.80;;;20.43;42.32
42411;BME280;28056;51.112;0.984;2023-05-27T09:44:47;101700.02;;;21.21;42.97
42411;BME280;28056;51.112;0.984;2023-05-27T09:47:16;101703.50;;;20.79;43.68
42411;BME280;28056;51.112;0.984;2023-05-27T09:49:45;101701.25;;;21.23;41.35
42411;BME280;28056;51.112;0.984;2023-05-27T09:52:13;101702.13;;;20.99;44.97
42411;BME280;28056;51.112;0.984;2023-05-27T09:54:43;101700.52;;;20.93;39.46
42411;BME280;28056;51.112;0.984;2023-05-27T09:57:11;101701.03;;;20.59;40.04
42411;BME280;28056;51.112;0.984;2023-05-27T09:59:38;101692.24;;;20.68;39.58
42411;BME280;28056;51.112;0.984;2023-05-27T10:02:07;101694.13;;;21.59;40.31
42411;BME280;28056;51.112;0.984;2023-05-27T10:04:34;101693.30;;;21.23;41.67
42411;BME280;28056;51.112;0.984;2023-05-27T10:07:02;101688.09;;;21.25;38.19
42411;BME280;28056;51.112;0.984;2023-05-27T10:09:30;101687.25;;;22.53;41.75
42411;BME280;28056;51.112;0.984;2023-05-27T10:11:57;101683.85;;;21.76;39.88
42411;BME280;28056;51.112;0.984;2023-05-27T10:14:26;101682.55;;;21.37;41.04
42411;BME280;28056;51.112;0.984;2023-05-27T10:16:56;101677.81;;;23.29;39.47
42411;BME280;28056;51.112;0.984;2023-05-27T10:19:23;101673.90;;;22.25;35.44
42411;BME280;28056;51.112;0.984;2023-05-27T10:21:52;101672.89;;;22.43;37.67
42411;BME280;28056;51.112;0.984;2023-05-27T10:24:31;101673.69;;;21.91;37.29
42411;BME280;28056;51.112;0.984;2023-05-27T10:27:01;101668.58;;;21.35;43.34
42411;BME280;28056;51.112;0.984;2023-05-27T10:29:36;101668.09;;;22.51;41.08
42411;BME280;28056;51.112;0.984;2023-05-27T10:32:05;101665.09;;;22.06;36.49
42411;BME280;28056;51.112;0.984;2023-05-27T10:34:36;101666.68;;;21.20;40.13
42411;BME280;28056;51.112;0.984;2023-05-27T10:37:04;101662.70;;;21.50;37.52
42411;BME280;28056;51.112;0.984;2023-05-27T10:39:31;101657.97;;;22.78;39.39
42411;BME280;28056;51.112;0.984;2023-05-27T10:41:59;101657.74;;;22.63;35.53
42411;BME280;28056;51.112;0.984;2023-05-27T10:44:27;101655.41;;;21.81;37.57
42411;BME280;28056;51.112;0.984;2023-05-27T10:47:04;101651.57;;;22.80;36.66
42411;BME280;28056;51.112;0.984;2023-05-27T10:49:34;101649.90;;;22.22;38.66
42411;BME280;28056;51.112;0.984;2023-05-27T10:52:06;101645.16;;;22.57;41.37
42411;BME280;28056;51.112;0.984;2023-05-27T10:54:34;101645.86;;;22.37;38.09
42411;BME280;28056;51.112;0.984;2023-05-27T10:57:03;101648.89;;;20.94;37.03
42411;BME280;28056;51.112;0.984;2023-05-27T10:59:40;101643.54;;;22.58;34.80
42411;BME280;28056;51.112;0.984;2023-05-27T11:02:07;101644.85;;;22.86;36.36
42411;BME280;28056;51.112;0.984;2023-05-27T11:04:35;101641.33;;;22.73;34.01
42411;BME280;28056;51.112;0.984;2023-05-27T11:07:04;101638.09;;;23.22;35.32
42411;BME280;28056;51.112;0.984;2023-05-27T11:09:43;101638.71;;;22.24;38.55
42411;BME280;28056;51.112;0.984;2023-05-27T11:12:13;101642.96;;;22.18;32.95
42411;BME280;28056;51.112;0.984;2023-05-27T11:14:41;101636.88;;;22.92;35.64
42411;BME280;28056;51.112;0.984;2023-05-27T11:17:09;101634.54;;;22.25;34.27
42411;BME280;28056;51.112;0.984;2023-05-27T11:19:39;101631.66;;;23.33;38.10
42411;BME280;28056;51.112;0.984;2023-05-27T11:22:07;101633.33;;;23.23;35.45
42411;BME280;28056;51.112;0.984;2023-05-27T11:24:35;101634.74;;;23.32;32.97
42411;BME280;28056;51.112;0.984;2023-05-27T11:27:08;101632.65;;;23.27;33.34
42411;BME280;28056;51.112;0.984;2023-05-27T11:29:36;101632.97;;;23.59;35.59
42411;BME280;28056;51.112;0.984;2023-05-27T11:32:04;101627.79;;;23.95;37.24
42411;BME280;28056;51.112;0.984;2023-05-27T11:34:34;101623.44;;;23.82;37.74
42411;BME280;28056;51.112;0.984;2023-05-27T11:37:02;101621.51;;;24.03;36.75
42411;BME280;28056;51.112;0.984;2023-05-27T11:39:30;101616.14;;;22.74;38.96
42411;BME280;28056;51.112;0.984;2023-05-27T13:46:06;101507.69;;;25.46;32.93
42411;BME280;28056;51.112;0.984;2023-05-27T13:48:33;101507.60;;;24.73;31.84
42411;BME280;28056;51.112;0.984;2023-05-27T13:51:06;101505.58;;;24.70;29.60
42411;BME280;28056;51.112;0.984;2023-05-27T13:53:33;101507.64;;;25.12;33.77
42411;BME280;28056;51.112;0.984;2023-05-27T13:56:00;101501.79;;;24.17;31.49
42411;BME280;28056;51.112;0.984;2023-05-27T13:58:28;101499.19;;;25.65;36.62
42411;BME280;28056;51.112;0.984;2023-05-27T14:00:55;101499.81;;;25.62;32.46
42411;BME280;28056;51.112;0.984;2023-05-27T14:03:52;101499.42;;;25.51;32.93
42411;BME280;28056;51.112;0.984;2023-05-27T14:06:19;101492.12;;;26.44;31.24
42411;BME280;28056;51.112;0.984;2023-05-27T14:08:47;101487.25;;;25.78;30.55
42411;BME280;28056;51.112;0.984;2023-05-27T14:11:14;101480.99;;;25.51;26.81
42411;BME280;28056;51.112;0.984;2023-05-27T14:13:42;101485.01;;;24.61;30.32
42411;BME280;28056;51.112;0.984;2023-05-27T14:16:09;101479.11;;;25.89;30.36
42411;BME280;28056;51.112;0.984;2023-05-27T14:18:37;101481.17;;;24.62;30.08
42411;BME280;28056;51.112;0.984;2023-05-27T14:21:04;101479.83;;;24.20;28.70
42411;BME280;28056;51.112;0.984;2023-05-27T14:23:32;101479.66;;;22.30;31.67
42411;BME280;28056;51.112;0.984;2023-05-27T14:26:06;101476.95;;;23.53;33.82
42411;BME280;28056;51.112;0.984;2023-05-27T14:28:34;101478.77;;;24.83;31.00
42411;BME280;28056;51.112;0.984;2023-05-27T14:31:01;101480.65;;;24.18;29.60
42411;BME280;28056;51.112;0.984;2023-05-27T14:33:29;101482.30;;;24.53;31.71
42411;BME280;28056;51.112;0.984;2023-05-27T14:35:56;101481.92;;;23.71;30.07
42411;BME280;28056;51.112;0.984;2023-05-27T14:38:24;101480.67;;;23.75;34.18
42411;BME280;28056;51.112;0.984;2023-05-27T14:40:51;101484.97;;;24.27;33.39
42411;BME280;28056;51.112;0.984;2023-05-27T14:43:19;101482.64;;;24.81;32.53
42411;BME280;28056;51.112;0.984;2023-05-27T14:45:47;101476.18;;;24.32;32.09
42411;BME280;28056;51.112;0.984;2023-05-27T14:48:15;101469.58;;;24.79;31.32
42411;BME280;28056;51.112;0.984;2023-05-27T14:50:42;101467.91;;;23.46;33.44
42411;BME280;28056;51.112;0.984;2023-05-27T14:53:09;101468.15;;;23.85;36.55
42411;BME280;28056;51.112;0.984;2023-05-27T14:55:37;101468.80;;;24.99;32.19
42411;BME280;28056;51.112;0.984;2023-05-27T14:58:04;101464.39;;;24.62;33.24
42411;BME280;28056;51.112;0.984;2023-05-27T15:00:31;101469.17;;;24.93;29.64
42411;BME280;28056;51.112;0.984;2023-05-27T15:02:59;101463.33;;;23.52;30.58